createdAt,value
2022-08-27T00:00:31.598Z,0
2022-08-27T00:01:31.906Z,0
2022-08-27T00:02:33.389Z,0
2022-08-27T00:03:32.283Z,0
2022-08-27T00:04:34.063Z,0
2022-08-27T00:05:33.723Z,0
2022-08-27T00:06:35.655Z,0
2022-08-27T00:07:36.156Z,0
2022-08-27T00:08:36.082Z,0
2022-08-27T00:09:43.748Z,0
2022-08-27T00:10:37.655Z,0
2022-08-27T00:11:39.033Z,0
2022-08-27T00:12:39.240Z,0
2022-08-27T00:13:40.459Z,0
2022-08-27T00:14:40.081Z,0
2022-08-27T00:15:40.686Z,0
2022-08-27T00:16:42.613Z,0
2022-08-27T00:17:42.848Z,0
2022-08-27T00:18:42.164Z,0
2022-08-27T00:19:43.082Z,0
2022-08-27T00:20:43.978Z,0
2022-08-27T00:21:44.661Z,0
2022-08-27T00:22:45.879Z,0
2022-08-27T00:23:46.530Z,0
2022-08-27T00:24:59.394Z,0
2022-08-27T00:25:47.717Z,0
2022-08-27T00:26:54.247Z,0
2022-08-27T00:27:49.439Z,0
2022-08-27T00:28:49.630Z,0
2022-08-27T00:29:50.122Z,0
2022-08-27T00:30:50.926Z,0
2022-08-27T00:31:54.953Z,0
2022-08-27T00:32:50.603Z,0
2022-08-27T00:33:51.541Z,0
2022-08-27T00:34:51.734Z,0
2022-08-27T00:35:52.351Z,0
2022-08-27T00:36:52.973Z,0
2022-08-27T00:37:53.874Z,0
2022-08-27T00:38:59.478Z,0
2022-08-27T00:39:55.813Z,0
2022-08-27T00:40:56.034Z,0
2022-08-27T00:41:57.057Z,0
2022-08-27T00:42:57.332Z,0
2022-08-27T00:43:58.257Z,0
2022-08-27T00:44:58.169Z,0
2022-08-27T00:45:59.097Z,0
2022-08-27T00:46:58.755Z,0
2022-08-27T00:47:59.949Z,0
2022-08-27T00:49:00.885Z,0
2022-08-27T00:50:01.100Z,0
2022-08-27T00:51:02.323Z,0
2022-08-27T00:52:05.702Z,0
2022-08-27T00:53:02.747Z,0
2022-08-27T00:54:03.943Z,0
2022-08-27T00:55:04.557Z,0
2022-08-27T00:56:05.473Z,0
2022-08-27T00:57:08.144Z,0
2022-08-27T00:58:10.187Z,0
2022-08-27T00:59:07.843Z,0
2022-08-27T01:00:09.036Z,0
2022-08-27T01:01:09.545Z,0
2022-08-27T01:02:10.155Z,0
2022-08-27T01:03:10.381Z,0
2022-08-27T01:04:10.308Z,0
2022-08-27T01:05:11.237Z,0
2022-08-27T01:06:11.880Z,0
2022-08-27T01:07:12.617Z,0
2022-08-27T01:08:12.590Z,0
2022-08-27T01:09:12.933Z,0
2022-08-27T01:10:14.148Z,0
2022-08-27T01:11:15.071Z,0
2022-08-27T01:12:14.520Z,0
2022-08-27T01:13:15.154Z,0
2022-08-27T01:14:17.225Z,0
2022-08-27T01:15:20.043Z,0
2022-08-27T01:16:15.783Z,0
2022-08-27T01:17:16.971Z,0
2022-08-27T01:18:17.604Z,0
2022-08-27T01:19:17.797Z,0
2022-08-27T01:20:17.718Z,0
2022-08-27T01:21:20.105Z,0
2022-08-27T01:22:28.858Z,0
2022-08-27T01:23:20.054Z,0
2022-08-27T01:24:21.269Z,0
2022-08-27T01:25:21.769Z,0
2022-08-27T01:26:21.659Z,0
2022-08-27T01:27:29.845Z,0
2022-08-27T01:28:29.225Z,0
2022-08-27T01:29:22.944Z,0
2022-08-27T01:30:22.841Z,0
2022-08-27T01:31:24.312Z,0
2022-08-27T01:32:24.145Z,0
2022-08-27T01:33:25.573Z,0
2022-08-27T01:34:25.214Z,0
2022-08-27T01:35:25.837Z,0
2022-08-27T01:36:27.050Z,0
2022-08-27T01:37:34.380Z,0
2022-08-27T01:38:48.147Z,0
2022-08-27T01:39:29.478Z,0
2022-08-27T01:40:33.025Z,0
2022-08-27T01:41:31.050Z,0
2022-08-27T01:42:30.054Z,0
2022-08-27T01:43:29.967Z,0
2022-08-27T01:44:33.801Z,0
2022-08-27T01:45:31.421Z,0
2022-08-27T01:46:32.238Z,0
2022-08-27T01:47:36.624Z,0
2022-08-27T01:48:32.673Z,0
2022-08-27T01:49:33.895Z,0
2022-08-27T01:50:34.538Z,0
2022-08-27T01:51:35.752Z,0
2022-08-27T01:52:36.016Z,0
2022-08-27T01:53:36.934Z,0
2022-08-27T01:54:38.577Z,0
2022-08-27T01:55:37.802Z,0
2022-08-27T01:56:37.715Z,0
2022-08-27T01:57:42.983Z,0
2022-08-27T01:58:38.601Z,0
2022-08-27T01:59:55.615Z,0
2022-08-27T02:00:40.635Z,0
2022-08-27T02:01:41.461Z,0
2022-08-27T02:02:41.771Z,0
2022-08-27T02:03:43.258Z,0
2022-08-27T02:04:43.452Z,0
2022-08-27T02:05:55.848Z,0
2022-08-27T02:06:43.786Z,0
2022-08-27T02:07:43.714Z,0
2022-08-27T02:08:45.213Z,0
2022-08-27T02:09:45.434Z,0
2022-08-27T02:10:45.624Z,0
2022-08-27T02:11:56.222Z,0
2022-08-27T02:12:45.642Z,0
2022-08-27T02:13:46.285Z,0
2022-08-27T02:14:47.507Z,0
2022-08-27T02:15:47.741Z,0
2022-08-27T02:17:03.782Z,0
2022-08-27T02:17:49.405Z,0
2022-08-27T02:18:53.815Z,0
2022-08-27T02:19:50.864Z,0
2022-08-27T02:20:50.491Z,0
2022-08-27T02:21:51.982Z,0
2022-08-27T02:22:53.898Z,0
2022-08-27T02:23:53.094Z,0
2022-08-27T02:24:53.432Z,0
2022-08-27T02:25:54.091Z,0
2022-08-27T02:26:54.437Z,0
2022-08-27T02:27:55.074Z,0
2022-08-27T02:28:55.998Z,0
2022-08-27T02:30:00.804Z,0
2022-08-27T02:30:57.027Z,0
2022-08-27T02:31:57.765Z,0
2022-08-27T02:32:57.514Z,0
2022-08-27T02:33:59.136Z,0
2022-08-27T02:34:59.358Z,0
2022-08-27T02:35:58.958Z,0
2022-08-27T02:36:59.682Z,0
2022-08-27T02:38:00.901Z,0
2022-08-27T02:39:00.801Z,0
2022-08-27T02:40:03.019Z,0
2022-08-27T02:41:05.620Z,0
2022-08-27T02:42:02.541Z,0
2022-08-27T02:43:02.975Z,0
2022-08-27T02:44:10.226Z,0
2022-08-27T02:45:04.901Z,0
2022-08-27T02:46:04.819Z,0
2022-08-27T02:47:10.183Z,0
2022-08-27T02:48:07.419Z,0
2022-08-27T02:49:07.684Z,0
2022-08-27T02:50:07.037Z,0
2022-08-27T02:51:08.227Z,0
2022-08-27T02:52:10.125Z,0
2022-08-27T02:53:09.381Z,0
2022-08-27T02:54:09.839Z,0
2022-08-27T02:55:11.990Z,0
2022-08-27T02:56:09.883Z,0
2022-08-27T02:57:11.083Z,0
2022-08-27T02:58:11.630Z,0
2022-08-27T02:59:11.576Z,0
2022-08-27T03:00:11.915Z,0
2022-08-27T03:01:18.851Z,0
2022-08-27T03:02:13.530Z,0
2022-08-27T03:03:14.387Z,0
2022-08-27T03:04:14.886Z,0
2022-08-27T03:05:15.083Z,0
2022-08-27T03:06:14.996Z,0
2022-08-27T03:07:24.205Z,0
2022-08-27T03:08:16.290Z,0
2022-08-27T03:09:17.213Z,0
2022-08-27T03:10:17.135Z,0
2022-08-27T03:11:18.635Z,0
2022-08-27T03:12:18.830Z,0
2022-08-27T03:13:20.147Z,0
2022-08-27T03:14:19.781Z,0
2022-08-27T03:15:20.706Z,0
2022-08-27T03:16:22.324Z,0
2022-08-27T03:17:21.980Z,0
2022-08-27T03:18:23.990Z,0
2022-08-27T03:19:29.355Z,0
2022-08-27T03:20:25.009Z,0
2022-08-27T03:21:25.928Z,0
2022-08-27T03:22:27.136Z,0
2022-08-27T03:23:27.263Z,0
2022-08-27T03:24:34.694Z,0
2022-08-27T03:25:29.180Z,0
2022-08-27T03:26:28.812Z,0
2022-08-27T03:27:30.027Z,0
2022-08-27T03:28:39.950Z,0
2022-08-27T03:29:30.873Z,0
2022-08-27T03:30:31.714Z,0
2022-08-27T03:31:32.656Z,0
2022-08-27T03:32:32.905Z,0
2022-08-27T03:33:33.161Z,0
2022-08-27T03:34:36.057Z,0
2022-08-27T03:35:35.528Z,0
2022-08-27T03:36:35.150Z,0
2022-08-27T03:37:36.168Z,0
2022-08-27T03:38:36.810Z,0
2022-08-27T03:39:38.299Z,0
2022-08-27T03:40:38.481Z,0
2022-08-27T03:42:06.223Z,0
2022-08-27T03:42:40.121Z,0
2022-08-27T03:43:40.825Z,0
2022-08-27T03:44:41.520Z,0
2022-08-27T03:46:13.563Z,0
2022-08-27T03:46:43.094Z,0
2022-08-27T03:47:44.027Z,0
2022-08-27T03:48:45.245Z,0
2022-08-27T03:49:45.141Z,0
2022-08-27T03:50:46.034Z,0
2022-08-27T03:51:47.531Z,0
2022-08-27T03:52:47.726Z,0
2022-08-27T03:53:48.456Z,0
2022-08-27T03:54:49.676Z,0
2022-08-27T03:55:49.902Z,0
2022-08-27T03:56:49.812Z,0
2022-08-27T03:57:51.006Z,0
2022-08-27T03:58:51.225Z,0
2022-08-27T03:59:54.220Z,0
2022-08-27T04:00:52.567Z,0
2022-08-27T04:01:53.303Z,0
2022-08-27T04:02:54.233Z,0
2022-08-27T04:03:54.995Z,0
2022-08-27T04:04:55.614Z,0
2022-08-27T04:05:56.829Z,0
2022-08-27T04:06:57.732Z,0
2022-08-27T04:07:57.556Z,0
2022-08-27T04:08:57.765Z,0
2022-08-27T04:09:58.388Z,0
2022-08-27T04:10:59.310Z,0
2022-08-27T04:11:59.921Z,0
2022-08-27T04:13:01.125Z,0
2022-08-27T04:14:01.830Z,0
2022-08-27T04:15:02.753Z,0
2022-08-27T04:16:03.620Z,0
2022-08-27T04:17:07.321Z,0
2022-08-27T04:18:05.520Z,0
2022-08-27T04:19:06.017Z,0
2022-08-27T04:20:37.224Z,0
2022-08-27T04:21:06.136Z,0
2022-08-27T04:22:07.330Z,0
2022-08-27T04:23:07.550Z,0
2022-08-27T04:24:09.733Z,0
2022-08-27T04:30:13.529Z,0
2022-08-27T04:31:18.637Z,0
2022-08-27T04:32:12.276Z,0
2022-08-27T04:33:13.483Z,0
2022-08-27T04:34:13.751Z,0
2022-08-27T04:35:13.950Z,0
2022-08-27T04:36:14.586Z,0
2022-08-27T04:37:15.169Z,0
2022-08-27T04:38:16.654Z,0
2022-08-27T04:39:16.281Z,0
2022-08-27T04:40:17.372Z,0
2022-08-27T04:41:17.319Z,0
2022-08-27T04:42:18.213Z,0
2022-08-27T04:43:22.716Z,0
2022-08-27T04:44:20.017Z,0
2022-08-27T04:45:20.526Z,0
2022-08-27T04:46:20.956Z,0
2022-08-27T04:47:21.190Z,0
2022-08-27T04:48:21.920Z,0
2022-08-27T04:49:27.156Z,0
2022-08-27T04:50:25.323Z,0
2022-08-27T04:51:28.269Z,0
2022-08-27T04:52:23.790Z,0
2022-08-27T04:53:28.796Z,0
2022-08-27T04:54:37.984Z,0
2022-08-27T04:55:26.206Z,0
2022-08-27T04:56:31.109Z,0
2022-08-27T04:57:27.604Z,0
2022-08-27T04:58:27.546Z,0
2022-08-27T04:59:29.038Z,0
2022-08-27T05:00:28.960Z,0
2022-08-27T05:01:29.828Z,0
2022-08-27T05:02:30.070Z,0
2022-08-27T05:03:30.481Z,0
2022-08-27T05:04:32.168Z,0
2022-08-27T05:05:33.100Z,0
2022-08-27T05:06:32.641Z,0
2022-08-27T05:07:32.835Z,0
2022-08-27T05:08:32.751Z,0
2022-08-27T05:09:37.849Z,0
2022-08-27T05:10:34.786Z,0
2022-08-27T05:11:34.984Z,0
2022-08-27T05:12:35.615Z,0
2022-08-27T05:13:37.113Z,5.63
2022-08-27T05:14:37.401Z,5.63
2022-08-27T05:15:37.389Z,5.63
2022-08-27T05:16:38.435Z,5.63
2022-08-27T05:17:40.315Z,5.63
2022-08-27T05:18:52.910Z,5.63
2022-08-27T05:19:40.130Z,5.63
2022-08-27T05:20:41.039Z,5.63
2022-08-27T05:21:41.229Z,5.63
2022-08-27T05:22:41.423Z,5.63
2022-08-27T05:23:49.496Z,5.63
2022-08-27T05:24:45.045Z,5.63
2022-08-27T05:25:43.912Z,5.63
2022-08-27T05:26:45.108Z,5.63
2022-08-27T05:27:45.599Z,5.63
2022-08-27T05:28:46.093Z,5.63
2022-08-27T05:29:47.362Z,5.63
2022-08-27T05:30:47.157Z,5.63
2022-08-27T05:31:47.225Z,5.63
2022-08-27T05:32:48.146Z,5.63
2022-08-27T05:33:48.341Z,5.63
2022-08-27T05:34:48.857Z,5.63
2022-08-27T05:35:49.053Z,5.63
2022-08-27T05:36:59.958Z,5.63
2022-08-27T05:37:50.147Z,5.63
2022-08-27T05:38:50.071Z,5.63
2022-08-27T05:39:51.588Z,5.63
2022-08-27T05:40:51.310Z,5.63
2022-08-27T05:41:51.957Z,5.63
2022-08-27T05:43:02.177Z,5.63
2022-08-27T05:44:01.289Z,5.63
2022-08-27T05:45:04.399Z,5.63
2022-08-27T05:46:05.752Z,5.63
2022-08-27T05:47:05.978Z,5.63
2022-08-27T05:48:06.996Z,5.63
2022-08-27T05:49:07.929Z,5.63
2022-08-27T05:50:07.832Z,5.63
2022-08-27T05:51:09.035Z,5.63
2022-08-27T05:52:08.955Z,5.63
2022-08-27T05:53:09.901Z,5.63
2022-08-27T05:54:14.217Z,5.63
2022-08-27T05:55:11.251Z,5.63
2022-08-27T05:56:14.986Z,5.63
2022-08-27T05:57:13.214Z,5.63
2022-08-27T05:58:14.763Z,5.63
2022-08-27T05:59:15.873Z,5.63
2022-08-27T06:00:20.224Z,5.63
2022-08-27T06:01:21.975Z,5.63
2022-08-27T06:02:17.279Z,5.63
2022-08-27T06:03:17.835Z,5.63
2022-08-27T06:04:23.250Z,5.63
2022-08-27T06:05:18.581Z,5.63
2022-08-27T06:06:17.950Z,5.63
2022-08-27T06:07:18.849Z,5.63
2022-08-27T06:08:20.658Z,5.63
2022-08-27T06:09:20.861Z,5.63
2022-08-27T06:10:21.058Z,5.63
2022-08-27T06:11:22.191Z,5.63
2022-08-27T06:12:27.019Z,11.25
2022-08-27T06:13:22.010Z,11.25
2022-08-27T06:14:22.629Z,11.25
2022-08-27T06:15:24.202Z,11.25
2022-08-27T06:16:24.944Z,11.25
2022-08-27T06:17:25.441Z,11.25
2022-08-27T06:18:25.732Z,11.25
2022-08-27T06:19:25.354Z,11.25
2022-08-27T06:20:26.627Z,11.25
2022-08-27T06:21:30.320Z,11.25
2022-08-27T06:22:27.369Z,11.25
2022-08-27T06:23:33.685Z,11.25
2022-08-27T06:24:28.602Z,16.88
2022-08-27T06:25:29.058Z,16.88
2022-08-27T06:26:29.687Z,16.88
2022-08-27T06:27:31.185Z,16.88
2022-08-27T06:28:31.402Z,16.88
2022-08-27T06:29:31.622Z,16.88
2022-08-27T06:30:34.633Z,16.88
2022-08-27T06:31:34.023Z,16.88
2022-08-27T06:32:34.263Z,16.88
2022-08-27T06:33:35.124Z,16.88
2022-08-27T06:34:34.735Z,16.88
2022-08-27T06:35:39.446Z,16.88
2022-08-27T06:36:38.593Z,16.88
2022-08-27T06:37:36.516Z,16.88
2022-08-27T06:38:37.444Z,22.5
2022-08-27T06:39:39.251Z,22.5
2022-08-27T06:40:40.061Z,22.5
2022-08-27T06:41:40.721Z,22.5
2022-08-27T06:42:42.924Z,22.5
2022-08-27T06:43:41.665Z,22.5
2022-08-27T06:44:42.873Z,22.5
2022-08-27T06:45:42.861Z,22.5
2022-08-27T06:46:43.979Z,22.5
2022-08-27T06:47:43.635Z,22.5
2022-08-27T06:48:44.513Z,22.5
2022-08-27T06:49:46.504Z,22.5
2022-08-27T06:50:45.896Z,22.5
2022-08-27T06:51:45.793Z,22.5
2022-08-27T06:52:46.996Z,22.5
2022-08-27T06:53:47.490Z,22.5
2022-08-27T06:54:48.256Z,22.5
2022-08-27T06:55:53.407Z,22.5
2022-08-27T06:56:48.050Z,22.5
2022-08-27T06:57:48.697Z,22.5
2022-08-27T06:58:49.597Z,22.5
2022-08-27T06:59:51.998Z,22.5
2022-08-27T07:00:54.426Z,22.5
2022-08-27T07:01:51.909Z,22.5
2022-08-27T07:02:52.671Z,28.13
2022-08-27T07:03:54.916Z,28.13
2022-08-27T07:04:53.376Z,28.13
2022-08-27T07:05:53.208Z,28.13
2022-08-27T07:06:54.699Z,28.13
2022-08-27T07:08:02.027Z,28.13
2022-08-27T07:09:04.572Z,28.13
2022-08-27T07:09:55.783Z,28.13
2022-08-27T07:10:56.003Z,28.13
2022-08-27T07:11:55.919Z,28.13
2022-08-27T07:12:56.564Z,28.13
2022-08-27T07:13:57.478Z,28.13
2022-08-27T07:15:02.483Z,28.13
2022-08-27T07:16:04.844Z,28.13
2022-08-27T07:17:04.385Z,33.75
2022-08-27T07:18:01.933Z,33.75
2022-08-27T07:19:06.974Z,33.75
2022-08-27T07:20:01.613Z,33.75
2022-08-27T07:21:02.720Z,33.75
2022-08-27T07:22:03.676Z,33.75
2022-08-27T07:23:07.367Z,39.38
2022-08-27T07:24:03.816Z,39.38
2022-08-27T07:25:05.319Z,39.38
2022-08-27T07:26:05.034Z,39.38
2022-08-27T07:27:05.972Z,39.38
2022-08-27T07:28:05.876Z,45
2022-08-27T07:29:06.749Z,45
2022-08-27T07:30:07.675Z,50.63
2022-08-27T07:31:08.137Z,50.63
2022-08-27T07:32:08.390Z,50.63
2022-08-27T07:33:09.034Z,50.63
2022-08-27T07:34:09.359Z,50.63
2022-08-27T07:35:11.005Z,50.63
2022-08-27T07:36:11.704Z,56.25
2022-08-27T07:37:12.629Z,56.25
2022-08-27T07:38:13.987Z,56.25
2022-08-27T07:39:17.126Z,61.88
2022-08-27T07:40:17.444Z,61.88
2022-08-27T07:41:15.392Z,67.5
2022-08-27T07:42:15.394Z,73.13
2022-08-27T07:43:16.320Z,73.13
2022-08-27T07:44:18.126Z,78.75
2022-08-27T07:45:17.796Z,78.75
2022-08-27T07:46:18.141Z,78.75
2022-08-27T07:47:18.872Z,84.38
2022-08-27T07:48:20.733Z,84.38
2022-08-27T07:49:20.641Z,95.63
2022-08-27T07:50:21.632Z,101.25
2022-08-27T07:51:22.566Z,123.75
2022-08-27T07:52:26.521Z,129.38
2022-08-27T07:53:26.511Z,118.13
2022-08-27T07:54:25.337Z,90
2022-08-27T07:55:26.388Z,90
2022-08-27T07:57:26.864Z,78.75
2022-08-27T07:58:30.128Z,78.75
2022-08-27T07:59:29.604Z,78.75
2022-08-27T08:00:27.553Z,73.13
2022-08-27T08:01:27.522Z,73.13
2022-08-27T08:02:28.511Z,73.13
2022-08-27T08:03:29.163Z,73.13
2022-08-27T08:04:36.548Z,73.13
2022-08-27T08:05:30.452Z,73.13
2022-08-27T08:06:31.191Z,67.5
2022-08-27T08:07:32.688Z,67.5
2022-08-27T08:08:33.754Z,67.5
2022-08-27T08:09:33.483Z,67.5
2022-08-27T08:14:36.568Z,67.5
2022-08-27T08:15:37.795Z,67.5
2022-08-27T08:16:42.931Z,67.5
2022-08-27T08:17:38.314Z,67.5
2022-08-27T08:18:39.539Z,67.5
2022-08-27T08:19:50.230Z,67.5
2022-08-27T08:21:10.825Z,73.13
2022-08-27T08:21:40.742Z,73.13
2022-08-27T08:22:40.942Z,67.5
2022-08-27T08:23:41.153Z,67.5
2022-08-27T08:24:41.056Z,67.5
2022-08-27T08:25:49.536Z,67.5
2022-08-27T08:27:42.943Z,61.88
2022-08-27T08:28:43.865Z,61.88
2022-08-27T08:29:45.358Z,61.88
2022-08-27T08:30:52.418Z,61.88
2022-08-27T08:31:50.040Z,61.88
2022-08-27T08:32:46.027Z,56.25
2022-08-27T08:33:46.977Z,56.25
2022-08-27T08:34:47.913Z,56.25
2022-08-27T08:35:57.462Z,56.25
2022-08-27T08:36:59.087Z,56.25
2022-08-27T08:37:50.494Z,56.25
2022-08-27T08:38:50.699Z,56.25
2022-08-27T08:39:50.339Z,56.25
2022-08-27T08:40:51.327Z,56.25
2022-08-27T08:41:51.548Z,56.25
2022-08-27T08:43:01.718Z,56.25
2022-08-27T08:43:52.623Z,56.25
2022-08-27T08:44:53.920Z,56.25
2022-08-27T08:45:55.055Z,56.25
2022-08-27T08:48:01.484Z,50.63
2022-08-27T08:48:59.315Z,50.63
2022-08-27T08:49:57.951Z,50.63
2022-08-27T08:50:57.871Z,50.63
2022-08-27T08:51:57.782Z,50.63
2022-08-27T08:52:58.681Z,50.63
2022-08-27T08:53:59.591Z,50.63
2022-08-27T08:55:05.334Z,50.63
2022-08-27T08:56:00.680Z,50.63
2022-08-27T08:57:06.036Z,50.63
2022-08-27T08:58:02.237Z,50.63
2022-08-27T09:07:08.025Z,73.13
2022-08-27T09:11:15.053Z,78.75
2022-08-27T09:12:15.766Z,78.75
2022-08-27T09:13:16.696Z,78.75
2022-08-27T09:14:24.392Z,78.75
2022-08-27T09:15:23.528Z,78.75
2022-08-27T09:16:18.909Z,78.75
2022-08-27T09:17:23.805Z,84.38
2022-08-27T09:18:27.938Z,90
2022-08-27T09:19:30.098Z,90
2022-08-27T09:20:25.622Z,95.63
2022-08-27T09:21:33.392Z,112.5
2022-08-27T09:22:21.396Z,112.5
2022-08-27T09:23:21.747Z,112.5
2022-08-27T09:24:25.034Z,106.88
2022-08-27T09:25:26.373Z,106.88
2022-08-27T09:26:23.581Z,106.88
2022-08-27T09:27:24.230Z,106.88
2022-08-27T09:28:24.656Z,106.88
2022-08-27T09:29:29.860Z,118.13
2022-08-27T09:30:30.469Z,196.88
2022-08-27T09:33:28.141Z,315
2022-08-27T09:34:31.266Z,191.25
2022-08-27T09:35:29.217Z,168.75
2022-08-27T09:36:34.884Z,213.75
2022-08-27T09:37:39.309Z,168.75
2022-08-27T09:38:31.533Z,157.5
2022-08-27T09:39:31.750Z,146.25
2022-08-27T09:40:39.554Z,140.63
2022-08-27T09:41:32.199Z,151.88
2022-08-27T09:42:33.070Z,157.5
2022-08-27T09:43:32.397Z,213.75
2022-08-27T09:44:33.634Z,180
2022-08-27T09:45:33.686Z,191.25
2022-08-27T09:46:37.730Z,343.13
2022-08-27T09:47:35.234Z,326.25
2022-08-27T09:48:35.400Z,264.38
2022-08-27T09:49:36.055Z,163.13
2022-08-27T09:50:40.618Z,275.63
2022-08-27T09:51:38.696Z,180
2022-08-27T09:52:43.171Z,174.38
2022-08-27T09:53:39.099Z,225
2022-08-27T09:54:40.339Z,275.63
2022-08-27T09:55:42.315Z,286.88
2022-08-27T09:56:41.817Z,292.5
2022-08-27T09:57:47.548Z,281.25
2022-08-27T09:58:42.759Z,258.75
2022-08-27T09:59:43.993Z,196.88
2022-08-27T10:00:43.933Z,253.13
2022-08-27T10:01:45.384Z,253.13
2022-08-27T10:02:45.400Z,298.13
2022-08-27T10:03:50.119Z,286.88
2022-08-27T10:05:02.623Z,219.38
2022-08-27T10:05:46.552Z,236.25
2022-08-27T10:06:47.464Z,258.75
2022-08-27T10:07:48.099Z,180
2022-08-27T10:08:49.007Z,230.63
2022-08-27T10:09:50.233Z,202.5
2022-08-27T10:10:52.987Z,270
2022-08-27T10:11:51.911Z,303.75
2022-08-27T10:12:52.123Z,129.38
2022-08-27T10:13:52.635Z,157.5
2022-08-27T10:14:52.286Z,123.75
2022-08-27T10:16:00.551Z,112.5
2022-08-27T10:16:54.074Z,101.25
2022-08-27T10:17:54.069Z,95.63
2022-08-27T10:18:54.286Z,95.63
2022-08-27T10:19:54.911Z,90
2022-08-27T10:20:56.627Z,90
2022-08-27T10:21:56.185Z,90
2022-08-27T10:22:57.226Z,95.63
2022-08-27T10:23:57.843Z,106.88
2022-08-27T10:24:58.077Z,135
2022-08-27T10:25:58.281Z,500.63
2022-08-27T10:26:58.213Z,410.63
2022-08-27T10:27:58.846Z,540
2022-08-27T10:29:00.618Z,118.13
2022-08-27T10:30:00.624Z,118.13
2022-08-27T10:31:04.549Z,264.38
2022-08-27T10:32:01.773Z,466.88
2022-08-27T10:33:18.279Z,388.13
2022-08-27T10:34:03.150Z,140.63
2022-08-27T10:35:03.055Z,118.13
2022-08-27T10:36:10.911Z,123.75
2022-08-27T10:37:09.764Z,135
2022-08-27T10:38:05.270Z,140.63
2022-08-27T10:39:05.198Z,146.25
2022-08-27T10:40:06.069Z,157.5
2022-08-27T10:41:05.997Z,185.63
2022-08-27T10:42:07.507Z,225
2022-08-27T10:43:14.107Z,253.13
2022-08-27T10:44:07.734Z,247.5
2022-08-27T10:45:08.940Z,230.63
2022-08-27T10:46:09.451Z,275.63
2022-08-27T10:47:08.831Z,264.38
2022-08-27T10:48:12.491Z,303.75
2022-08-27T10:49:10.211Z,309.38
2022-08-27T10:50:10.904Z,348.75
2022-08-27T10:51:11.829Z,348.75
2022-08-27T10:52:19.133Z,354.38
2022-08-27T10:53:13.117Z,236.25
2022-08-27T10:54:14.347Z,213.75
2022-08-27T10:55:17.863Z,180
2022-08-27T10:56:18.385Z,163.13
2022-08-27T10:58:11.928Z,135
2022-08-27T10:58:29.890Z,129.38
2022-08-27T10:59:29.805Z,129.38
2022-08-27T11:00:30.158Z,213.75
2022-08-27T11:01:31.476Z,146.25
2022-08-27T11:02:32.183Z,135
2022-08-27T11:03:37.805Z,135
2022-08-27T11:04:32.058Z,140.63
2022-08-27T11:05:33.454Z,146.25
2022-08-27T11:06:33.766Z,168.75
2022-08-27T11:07:34.701Z,168.75
2022-08-27T11:08:35.343Z,196.88
2022-08-27T11:09:35.955Z,185.63
2022-08-27T11:10:38.082Z,230.63
2022-08-27T11:12:27.609Z,219.38
2022-08-27T11:12:44.612Z,191.25
2022-08-27T11:14:45.616Z,545.63
2022-08-27T11:15:45.823Z,253.13
2022-08-27T11:16:50.865Z,213.75
2022-08-27T11:17:49.016Z,219.38
2022-08-27T11:18:47.011Z,208.13
2022-08-27T11:19:47.228Z,202.5
2022-08-27T11:20:47.736Z,191.25
2022-08-27T11:21:47.076Z,241.88
2022-08-27T11:22:49.309Z,264.38
2022-08-27T11:23:49.001Z,360
2022-08-27T11:24:53.000Z,354.38
2022-08-27T11:25:50.915Z,433.13
2022-08-27T11:26:51.567Z,500.63
2022-08-27T11:27:52.800Z,523.13
2022-08-27T11:28:52.433Z,511.88
2022-08-27T11:29:53.904Z,264.38
2022-08-27T11:30:54.042Z,185.63
2022-08-27T11:31:56.245Z,135
2022-08-27T11:32:56.228Z,112.5
2022-08-27T11:34:02.427Z,95.63
2022-08-27T11:34:57.385Z,84.38
2022-08-27T11:35:57.592Z,84.38
2022-08-27T11:37:05.465Z,90
2022-08-27T11:37:58.966Z,84.38
2022-08-27T11:38:59.197Z,84.38
2022-08-27T11:40:03.027Z,84.38
2022-08-27T11:40:59.793Z,84.38
2022-08-27T11:42:02.466Z,84.38
2022-08-27T11:43:01.370Z,84.38
2022-08-27T11:44:02.080Z,78.75
2022-08-27T11:45:03.010Z,78.75
2022-08-27T11:46:04.491Z,78.75
2022-08-27T11:47:03.287Z,78.75
2022-08-27T11:48:03.969Z,73.13
2022-08-27T11:49:10.387Z,78.75
2022-08-27T11:50:05.504Z,78.75
2022-08-27T11:51:05.759Z,78.75
2022-08-27T11:52:06.985Z,84.38
2022-08-27T11:53:07.189Z,84.38
2022-08-27T11:54:10.127Z,90
2022-08-27T11:55:11.466Z,95.63
2022-08-27T11:56:11.671Z,101.25
2022-08-27T11:57:12.324Z,112.5
2022-08-27T11:58:13.448Z,140.63
2022-08-27T11:59:13.594Z,174.38
2022-08-27T12:00:13.537Z,191.25
2022-08-27T12:01:20.353Z,129.38
2022-08-27T12:02:15.557Z,123.75
2022-08-27T12:05:16.830Z,106.88
2022-08-27T12:06:17.762Z,112.5
2022-08-27T12:07:22.805Z,298.13
2022-08-27T12:08:21.564Z,174.38
2022-08-27T12:09:19.336Z,241.88
2022-08-27T12:10:20.611Z,191.25
2022-08-27T12:11:22.163Z,146.25
2022-08-27T12:12:21.079Z,146.25
2022-08-27T12:13:22.575Z,157.5
2022-08-27T12:14:22.815Z,174.38
2022-08-27T12:15:26.628Z,146.25
2022-08-27T12:16:23.578Z,163.13
2022-08-27T12:17:23.309Z,140.63
2022-08-27T12:18:24.881Z,157.5
2022-08-27T12:19:24.815Z,140.63
2022-08-27T12:20:24.772Z,129.38
2022-08-27T12:21:25.825Z,135
2022-08-27T12:22:26.433Z,135
2022-08-27T12:23:27.372Z,140.63
2022-08-27T12:24:28.083Z,202.5
2022-08-27T12:25:27.702Z,185.63
2022-08-27T12:26:28.935Z,191.25
2022-08-27T12:27:29.443Z,348.75
2022-08-27T12:28:32.294Z,253.13
2022-08-27T12:29:34.607Z,376.88
2022-08-27T12:30:30.391Z,382.5
2022-08-27T12:31:30.324Z,326.25
2022-08-27T12:32:30.697Z,354.38
2022-08-27T12:33:31.905Z,348.75
2022-08-27T12:34:35.343Z,337.5
2022-08-27T12:35:35.352Z,337.5
2022-08-27T12:36:47.990Z,320.63
2022-08-27T12:37:36.413Z,315
2022-08-27T12:38:36.950Z,292.5
2022-08-27T12:39:36.159Z,275.63
2022-08-27T12:40:41.498Z,112.5
2022-08-27T12:41:43.527Z,95.63
2022-08-27T12:42:38.553Z,90
2022-08-27T12:43:38.776Z,95.63
2022-08-27T12:44:38.746Z,95.63
2022-08-27T12:45:39.370Z,84.38
2022-08-27T12:46:45.487Z,84.38
2022-08-27T12:47:42.620Z,112.5
2022-08-27T12:48:40.629Z,90
2022-08-27T12:50:01.140Z,90
2022-08-27T12:50:42.446Z,101.25
2022-08-27T12:51:42.392Z,225
2022-08-27T12:52:43.891Z,241.88
2022-08-27T12:53:44.397Z,236.25
2022-08-27T12:54:47.195Z,241.88
2022-08-27T12:55:47.182Z,230.63
2022-08-27T12:56:46.120Z,112.5
2022-08-27T12:57:46.053Z,213.75
2022-08-27T12:58:47.266Z,236.25
2022-08-27T12:59:47.498Z,225
2022-08-27T13:00:48.950Z,112.5
2022-08-27T13:01:54.758Z,101.25
2022-08-27T13:02:50.135Z,90
2022-08-27T13:03:50.341Z,90
2022-08-27T13:04:50.332Z,84.38
2022-08-27T13:05:51.256Z,78.75
2022-08-27T13:06:51.462Z,78.75
2022-08-27T13:07:54.331Z,78.75
2022-08-27T13:08:54.727Z,73.13
2022-08-27T13:09:56.884Z,73.13
2022-08-27T13:10:53.504Z,73.13
2022-08-27T13:11:53.709Z,73.13
2022-08-27T13:12:53.940Z,67.5
2022-08-27T13:13:53.853Z,61.88
2022-08-27T13:15:08.138Z,56.25
2022-08-27T13:15:55.449Z,50.63
2022-08-27T13:16:57.235Z,50.63
2022-08-27T13:17:57.830Z,50.63
2022-08-27T13:18:57.993Z,50.63
2022-08-27T13:19:59.202Z,50.63
2022-08-27T13:21:09.915Z,56.25
2022-08-27T13:21:59.545Z,56.25
2022-08-27T13:23:00.753Z,73.13
2022-08-27T13:24:01.392Z,180
2022-08-27T13:25:02.091Z,174.38
2022-08-27T13:26:02.551Z,174.38
2022-08-27T13:27:04.060Z,146.25
2022-08-27T13:28:03.688Z,163.13
2022-08-27T13:29:09.009Z,56.25
2022-08-27T13:30:05.967Z,50.63
2022-08-27T13:31:06.072Z,50.63
2022-08-27T13:32:07.212Z,50.63
2022-08-27T13:33:07.144Z,56.25
2022-08-27T13:34:11.877Z,61.88
2022-08-27T13:35:08.586Z,73.13
2022-08-27T13:36:09.794Z,67.5
2022-08-27T13:37:09.996Z,73.13
2022-08-27T13:38:10.435Z,73.13
2022-08-27T13:39:10.771Z,73.13
2022-08-27T13:40:10.988Z,73.13
2022-08-27T13:41:11.543Z,73.13
2022-08-27T13:42:10.912Z,67.5
2022-08-27T13:43:14.024Z,67.5
2022-08-27T13:44:16.271Z,61.88
2022-08-27T13:45:12.736Z,61.88
2022-08-27T13:46:15.939Z,56.25
2022-08-27T13:47:13.749Z,50.63
2022-08-27T13:48:14.256Z,50.63
2022-08-27T13:49:14.190Z,50.63
2022-08-27T13:50:15.438Z,56.25
2022-08-27T13:51:15.643Z,56.25
2022-08-27T13:52:15.869Z,56.25
2022-08-27T13:53:19.830Z,50.63
2022-08-27T13:54:16.766Z,50.63
2022-08-27T13:55:17.531Z,45
2022-08-27T13:56:18.031Z,39.38
2022-08-27T13:57:17.979Z,33.75
2022-08-27T13:58:17.872Z,28.13
2022-08-27T13:59:23.394Z,28.13
2022-08-27T14:00:19.043Z,28.13
2022-08-27T14:01:20.663Z,28.13
2022-08-27T14:02:21.681Z,28.13
2022-08-27T14:03:20.896Z,22.5
2022-08-27T14:04:22.551Z,22.5
2022-08-27T14:05:22.815Z,22.5
2022-08-27T14:06:22.725Z,22.5
2022-08-27T14:07:23.936Z,22.5
2022-08-27T14:08:24.845Z,22.5
2022-08-27T14:09:25.057Z,22.5
2022-08-27T14:10:25.559Z,22.5
2022-08-27T14:11:25.760Z,22.5